createdAt,value
2019-01-25T00:01:29.194Z,72.10
2019-01-25T00:03:58.213Z,72.15
2019-01-25T00:06:27.259Z,78.67
2019-01-25T00:08:58.224Z,72.50
2019-01-25T00:11:27.047Z,77.12
2019-01-25T00:13:55.645Z,78.72
2019-01-25T00:16:24.377Z,78.10
2019-01-25T00:18:53.070Z,80.17
2019-01-25T00:21:21.940Z,83.75
2019-01-25T00:23:50.758Z,77.62
2019-01-25T00:26:19.397Z,79.53
2019-01-25T00:28:48.083Z,73.92
2019-01-25T00:31:17.387Z,78.50
2019-01-25T00:33:46.156Z,73.80
2019-01-25T00:36:15.110Z,75.37
2019-01-25T00:38:43.522Z,75.17
2019-01-25T00:41:12.255Z,78.97
2019-01-25T00:43:40.839Z,72.95
2019-01-25T00:46:09.479Z,77.80
2019-01-25T00:48:38.362Z,79.37
2019-01-25T00:51:07.026Z,73.05
2019-01-25T00:53:35.625Z,79.95
2019-01-25T00:56:05.280Z,78.60
2019-01-25T00:58:33.974Z,74.55
2019-01-25T01:01:03.745Z,79.05
2019-01-25T01:03:32.262Z,86.42
2019-01-25T01:06:01.077Z,82.75
2019-01-25T01:08:30.828Z,74.60
2019-01-25T01:10:59.513Z,75.10
2019-01-25T01:13:28.242Z,75.83
2019-01-25T01:15:56.930Z,85.62
2019-01-25T01:18:25.462Z,74.05
2019-01-25T01:20:53.995Z,79.77
2019-01-25T01:23:22.853Z,82.70
2019-01-25T01:25:53.179Z,81.67
2019-01-25T01:28:21.802Z,80.38
2019-01-25T01:30:50.473Z,86.82
2019-01-25T01:33:19.052Z,78.52
2019-01-25T01:35:47.925Z,80.55
2019-01-25T01:38:16.612Z,85.77
2019-01-25T01:40:45.377Z,82.10
2019-01-25T01:43:13.823Z,75.10
2019-01-25T01:45:42.398Z,79.30
2019-01-25T01:48:11.024Z,92.90
2019-01-25T01:50:39.869Z,82.20
2019-01-25T01:53:08.564Z,82.37
2019-01-25T01:55:37.226Z,73.95
2019-01-25T01:58:05.711Z,89.32
2019-01-25T02:00:34.502Z,83.22
2019-01-25T02:03:03.986Z,78.02
2019-01-25T02:05:32.730Z,83.85
2019-01-25T02:08:01.340Z,82.70
2019-01-25T02:10:30.258Z,90.80
2019-01-25T02:12:58.830Z,80.15
2019-01-25T02:15:27.844Z,84.87
2019-01-25T02:17:56.479Z,81.12
2019-01-25T02:20:30.231Z,76.17
2019-01-25T02:22:59.039Z,81.57
2019-01-25T02:25:27.632Z,82.20
2019-01-25T02:27:56.524Z,75.57
2019-01-25T02:30:26.643Z,86.90
2019-01-25T02:32:55.463Z,78.40
2019-01-25T02:35:24.375Z,89.80
2019-01-25T02:37:53.141Z,81.17
2019-01-25T02:40:24.610Z,84.50
2019-01-25T02:42:53.583Z,72.35
2019-01-25T02:45:22.263Z,84.95
2019-01-25T02:47:50.777Z,84.40
2019-01-25T02:50:20.070Z,78.62
2019-01-25T02:52:49.015Z,84.83
2019-01-25T02:55:17.830Z,85.45
2019-01-25T02:57:46.601Z,81.82
2019-01-25T03:00:23.182Z,84.28
2019-01-25T03:02:53.323Z,80.60
2019-01-25T03:05:22.977Z,80.22
2019-01-25T03:07:52.221Z,89.92
2019-01-25T03:10:28.590Z,80.38
2019-01-25T03:12:53.283Z,86.12
2019-01-25T03:15:25.215Z,96.47
2019-01-25T03:17:54.199Z,82.82
2019-01-25T03:20:24.135Z,86.67
2019-01-25T03:22:53.047Z,83.67
2019-01-25T03:25:24.945Z,83.22
2019-01-25T03:27:53.617Z,77.22
2019-01-25T03:30:23.645Z,95.60
2019-01-25T03:32:52.377Z,89.95
2019-01-25T03:35:23.299Z,82.65
2019-01-25T03:37:52.593Z,91.10
2019-01-25T03:40:24.245Z,86.72
2019-01-25T03:42:53.023Z,93.87
2019-01-25T03:45:22.711Z,94.32
2019-01-25T03:47:51.259Z,87.00
2019-01-25T03:50:23.963Z,87.02
2019-01-25T03:52:52.467Z,90.20
2019-01-25T03:55:21.339Z,91.45
2019-01-25T03:57:49.957Z,94.80
2019-01-25T04:00:21.026Z,94.67
2019-01-25T04:02:50.108Z,85.83
2019-01-25T04:05:19.026Z,85.28
2019-01-25T04:07:48.395Z,87.42
2019-01-25T04:10:19.962Z,88.30
2019-01-25T04:12:48.846Z,89.90
2019-01-25T04:15:21.424Z,87.53
2019-01-25T04:17:50.182Z,86.08
2019-01-25T04:20:19.091Z,90.47
2019-01-25T04:22:48.072Z,88.20
2019-01-25T04:25:19.501Z,83.10
2019-01-25T04:27:48.139Z,93.47
2019-01-25T04:30:20.606Z,85.50
2019-01-25T04:32:49.311Z,98.37
2019-01-25T04:35:17.983Z,98.70
2019-01-25T04:37:46.926Z,93.85
2019-01-25T04:40:16.345Z,90.92
2019-01-25T04:42:45.118Z,83.75
2019-01-25T04:45:16.458Z,89.30
2019-01-25T04:47:45.216Z,98.00
2019-01-25T04:50:19.227Z,90.77
2019-01-25T04:52:48.456Z,83.17
2019-01-25T04:55:23.409Z,92.55
2019-01-25T04:57:52.152Z,88.80
2019-01-25T05:00:21.946Z,82.17
2019-01-25T05:02:54.677Z,85.97
2019-01-25T05:05:23.766Z,87.97
2019-01-25T05:08:02.085Z,90.42
2019-01-25T05:10:30.594Z,88.95
2019-01-25T05:12:59.417Z,93.20
2019-01-25T05:15:28.437Z,83.82
2019-01-25T05:17:56.998Z,83.85
2019-01-25T05:20:26.663Z,86.53
2019-01-25T05:23:00.495Z,77.85
2019-01-25T05:25:29.287Z,88.97
2019-01-25T05:28:09.813Z,89.42
2019-01-25T05:30:38.688Z,73.78
2019-01-25T05:33:07.273Z,85.05
2019-01-25T05:35:36.507Z,80.95
2019-01-25T05:38:05.174Z,82.37
2019-01-25T05:40:33.840Z,91.22
2019-01-25T05:43:02.333Z,79.75
2019-01-25T05:45:30.822Z,85.72
2019-01-25T05:47:59.414Z,84.75
2019-01-25T05:50:27.978Z,99.72
2019-01-25T05:52:56.602Z,83.12
2019-01-25T05:55:25.469Z,79.90
2019-01-25T05:58:00.554Z,80.40
2019-01-25T06:00:32.690Z,80.30
2019-01-25T06:03:13.815Z,73.85
2019-01-25T06:05:42.606Z,88.37
2019-01-25T06:08:32.747Z,88.40
2019-01-25T06:11:10.350Z,83.55
2019-01-25T06:13:40.722Z,90.38
2019-01-25T06:16:09.407Z,86.92
2019-01-25T06:18:38.044Z,82.92
2019-01-25T06:21:06.849Z,83.62
2019-01-25T06:23:35.419Z,88.65
2019-01-25T06:26:05.677Z,91.70
2019-01-25T06:28:34.238Z,83.05
2019-01-25T06:31:04.596Z,86.67
2019-01-25T06:33:33.358Z,86.28
2019-01-25T06:36:02.497Z,85.53
2019-01-25T06:38:31.039Z,91.40
2019-01-25T06:40:59.579Z,78.52
2019-01-25T06:43:28.253Z,82.57
2019-01-25T06:45:57.044Z,90.40
2019-01-25T06:48:25.730Z,91.22
2019-01-25T06:50:54.445Z,88.78
2019-01-25T06:53:23.077Z,88.78
2019-01-25T06:55:51.624Z,96.22
2019-01-25T06:58:29.024Z,79.32
2019-01-25T07:01:17.084Z,87.75
2019-01-25T07:03:45.728Z,87.92
2019-01-25T07:06:14.353Z,78.83
2019-01-25T07:08:43.060Z,83.20
2019-01-25T07:11:11.577Z,91.20
2019-01-25T07:13:40.063Z,85.72
2019-01-25T07:16:08.696Z,90.47
2019-01-25T07:18:37.402Z,89.22
2019-01-25T07:21:06.551Z,84.30
2019-01-25T07:23:35.267Z,83.17
2019-01-25T07:26:03.960Z,85.87
2019-01-25T07:28:32.504Z,90.28
2019-01-25T07:31:01.057Z,87.27
2019-01-25T07:33:30.133Z,87.15
2019-01-25T07:35:58.911Z,94.45
2019-01-25T07:38:27.989Z,81.63
2019-01-25T07:40:56.537Z,85.28
2019-01-25T07:43:25.121Z,82.50
2019-01-25T07:45:53.663Z,90.17
2019-01-25T07:48:22.660Z,83.17
2019-01-25T07:50:51.494Z,86.70
2019-01-25T07:53:22.138Z,82.60
2019-01-25T07:55:50.677Z,80.42
2019-01-25T07:58:19.430Z,94.67
2019-01-25T08:00:48.190Z,85.75
2019-01-25T08:03:16.786Z,95.97
2019-01-25T08:05:45.684Z,79.65
2019-01-25T08:08:14.388Z,93.75
2019-01-25T08:10:43.077Z,89.92
2019-01-25T08:13:11.623Z,92.20
2019-01-25T08:15:41.619Z,87.85
2019-01-25T08:18:10.290Z,86.85
2019-01-25T08:20:39.038Z,97.75
2019-01-25T08:23:07.677Z,84.95
2019-01-25T08:25:36.299Z,88.05
2019-01-25T08:28:04.897Z,85.28
2019-01-25T08:30:33.605Z,91.65
2019-01-25T08:33:02.224Z,108.40
2019-01-25T08:35:30.941Z,89.07
2019-01-25T08:37:59.827Z,92.05
2019-01-25T08:40:28.576Z,91.30
2019-01-25T08:42:57.245Z,93.85
2019-01-25T08:45:25.829Z,99.87
2019-01-25T08:47:54.609Z,87.92
2019-01-25T08:50:23.421Z,90.40
2019-01-25T08:52:52.400Z,86.22
2019-01-25T08:55:21.432Z,86.85
2019-01-25T08:57:51.017Z,85.95
2019-01-25T09:00:22.036Z,82.33
2019-01-25T09:02:50.680Z,80.22
2019-01-25T09:05:20.018Z,89.50
2019-01-25T09:07:48.851Z,82.75
2019-01-25T09:10:18.721Z,91.90
2019-01-25T09:12:47.294Z,93.27
2019-01-25T09:15:22.811Z,91.08
2019-01-25T09:17:51.542Z,85.85
2019-01-25T09:20:20.830Z,93.12
2019-01-25T09:22:49.445Z,92.65
2019-01-25T09:25:18.468Z,89.30
2019-01-25T09:27:47.208Z,91.70
2019-01-25T09:30:18.895Z,96.80
2019-01-25T09:32:48.182Z,90.40
2019-01-25T09:35:17.546Z,83.17
2019-01-25T09:37:46.772Z,98.40
2019-01-25T09:40:20.117Z,89.42
2019-01-25T09:42:48.720Z,97.00
2019-01-25T09:45:19.135Z,89.77
2019-01-25T09:47:47.889Z,85.70
2019-01-25T09:50:18.045Z,80.38
2019-01-25T09:52:46.769Z,97.30
2019-01-25T09:55:18.549Z,91.05
2019-01-25T09:57:47.792Z,95.85
2019-01-25T10:00:43.827Z,94.25
2019-01-25T10:03:12.882Z,95.90
2019-01-25T10:05:41.701Z,91.85
2019-01-25T10:08:10.407Z,92.05
2019-01-25T10:10:38.859Z,79.07
2019-01-25T10:13:07.504Z,86.67
2019-01-25T10:15:36.061Z,86.12
2019-01-25T10:18:04.937Z,91.12
2019-01-25T10:20:33.689Z,89.30
2019-01-25T10:23:02.358Z,83.97
2019-01-25T10:25:30.886Z,95.35
2019-01-25T10:27:59.497Z,96.55
2019-01-25T10:30:28.511Z,72.25
2019-01-25T10:32:57.342Z,93.03
2019-01-25T10:35:26.003Z,98.40
2019-01-25T10:37:55.211Z,82.67
2019-01-25T10:40:23.763Z,87.08
2019-01-25T10:42:53.704Z,85.40
2019-01-25T10:45:29.108Z,80.83
2019-01-25T10:47:57.763Z,82.25
2019-01-25T10:50:26.328Z,89.95
2019-01-25T10:52:54.949Z,76.47
2019-01-25T10:55:23.506Z,92.27
2019-01-25T10:57:52.334Z,83.60
2019-01-25T11:00:21.069Z,81.30
2019-01-25T11:02:49.704Z,88.55
2019-01-25T11:05:21.272Z,85.67
2019-01-25T11:07:50.015Z,79.65
2019-01-25T11:10:18.646Z,84.42
2019-01-25T11:12:47.217Z,79.45
2019-01-25T11:15:21.348Z,80.42
2019-01-25T11:17:50.204Z,75.15
2019-01-25T11:20:20.884Z,68.33
2019-01-25T11:22:49.461Z,74.17
2019-01-25T11:25:28.695Z,72.72
2019-01-25T11:27:57.256Z,70.00
2019-01-25T11:30:26.295Z,71.15
2019-01-25T11:32:54.814Z,69.42
2019-01-25T11:35:23.208Z,78.15
2019-01-25T11:37:52.423Z,72.95
2019-01-25T11:40:33.988Z,62.35
2019-01-25T11:43:08.601Z,74.05
2019-01-25T11:45:33.224Z,63.63
2019-01-25T11:48:02.550Z,70.20
2019-01-25T11:50:30.988Z,72.00
2019-01-25T11:52:59.541Z,73.95
2019-01-25T11:55:28.006Z,68.47
2019-01-25T11:57:56.520Z,66.65
2019-01-25T12:00:27.371Z,71.42
2019-01-25T12:02:55.969Z,69.53
2019-01-25T12:05:24.801Z,69.35
2019-01-25T12:07:53.969Z,73.80
2019-01-25T12:10:25.704Z,68.30
2019-01-25T12:12:54.188Z,70.42
2019-01-25T12:15:23.369Z,56.50
2019-01-25T12:17:51.841Z,69.53
2019-01-25T12:20:28.609Z,66.00
2019-01-25T12:22:57.281Z,80.05
2019-01-25T12:25:25.730Z,67.17
2019-01-25T12:27:54.660Z,69.22
2019-01-25T12:30:29.692Z,66.65
2019-01-25T12:32:58.102Z,75.80
2019-01-25T12:35:28.389Z,67.25
2019-01-25T12:37:57.072Z,69.92
2019-01-25T12:40:25.979Z,69.60
2019-01-25T12:42:54.668Z,59.42
2019-01-25T12:45:25.446Z,66.72
2019-01-25T12:47:54.017Z,69.85
2019-01-25T12:50:33.558Z,66.67
2019-01-25T12:53:03.806Z,70.05
2019-01-25T12:55:32.989Z,67.15
2019-01-25T12:58:01.759Z,70.55
2019-01-25T13:00:30.332Z,70.10
2019-01-25T13:02:58.952Z,67.55
2019-01-25T13:05:28.123Z,67.65
2019-01-25T13:07:56.861Z,61.42
2019-01-25T13:10:25.823Z,61.83
2019-01-25T13:12:54.458Z,73.78
2019-01-25T13:15:24.433Z,69.65
2019-01-25T13:17:54.058Z,71.17
2019-01-25T13:20:25.231Z,65.10
2019-01-25T13:22:54.481Z,63.98
2019-01-25T13:25:22.960Z,69.47
2019-01-25T13:27:51.682Z,66.92
2019-01-25T13:30:23.855Z,67.87
2019-01-25T13:32:52.736Z,71.53
2019-01-25T13:35:21.392Z,68.28
2019-01-25T13:37:50.011Z,65.97
2019-01-25T13:40:20.548Z,66.60
2019-01-25T13:42:49.446Z,66.67
2019-01-25T13:45:20.410Z,74.30
2019-01-25T13:47:49.335Z,68.28
2019-01-25T13:50:21.316Z,72.92
2019-01-25T13:52:49.890Z,65.25
2019-01-25T13:55:18.738Z,63.65
2019-01-25T13:57:47.276Z,65.55
2019-01-25T14:00:30.311Z,60.50
2019-01-25T14:02:58.932Z,67.07
2019-01-25T14:05:27.474Z,65.03
2019-01-25T14:07:56.205Z,71.07
2019-01-25T14:10:33.389Z,69.62
2019-01-25T14:13:01.947Z,69.80
2019-01-25T14:15:30.942Z,70.52
2019-01-25T14:17:59.644Z,69.47
2019-01-25T14:20:30.409Z,72.45
2019-01-25T14:22:59.235Z,64.22
2019-01-25T14:25:27.913Z,64.03
2019-01-25T14:27:56.433Z,65.17
2019-01-25T14:30:50.682Z,61.50
2019-01-25T14:33:19.385Z,65.78
2019-01-25T14:35:47.961Z,58.17
2019-01-25T14:38:17.408Z,62.38
2019-01-25T14:40:46.148Z,40.10
2019-01-25T14:43:14.533Z,58.13
2019-01-25T14:45:42.944Z,54.18
2019-01-25T14:48:11.464Z,68.92
2019-01-25T14:50:39.942Z,53.17
2019-01-25T14:53:08.940Z,62.13
2019-01-25T14:55:37.509Z,53.80
2019-01-25T14:58:06.903Z,56.88
2019-01-25T15:00:35.565Z,45.28
2019-01-25T15:03:05.024Z,49.40
2019-01-25T15:05:33.593Z,47.23
2019-01-25T15:08:02.504Z,38.20
2019-01-25T15:10:31.263Z,48.23
2019-01-25T15:12:59.967Z,40.38
2019-01-25T15:15:28.636Z,42.55
2019-01-25T15:17:57.162Z,39.10
2019-01-25T15:20:28.555Z,44.27
2019-01-25T15:22:57.314Z,41.73
2019-01-25T15:25:28.115Z,40.88
2019-01-25T15:27:56.646Z,36.70
2019-01-25T15:30:28.610Z,40.73
2019-01-25T15:32:57.991Z,41.42
2019-01-25T15:35:27.734Z,37.55
2019-01-25T15:37:56.383Z,35.55
2019-01-25T15:40:25.196Z,38.23
2019-01-25T15:42:54.937Z,47.75
2019-01-25T15:45:23.542Z,41.18
2019-01-25T15:47:52.130Z,39.25
2019-01-25T15:50:26.564Z,42.13
2019-01-25T15:52:55.111Z,42.65
2019-01-25T15:55:24.039Z,50.67
2019-01-25T15:57:53.953Z,47.98
2019-01-25T16:00:25.103Z,53.92
2019-01-25T16:02:54.965Z,52.53
2019-01-25T16:05:24.424Z,54.50
2019-01-25T16:07:53.166Z,58.17
2019-01-25T16:10:22.151Z,56.18
2019-01-25T16:12:51.359Z,54.40
2019-01-25T16:15:32.929Z,55.63
2019-01-25T16:18:01.504Z,54.75
2019-01-25T16:20:30.317Z,60.83
2019-01-25T16:22:58.975Z,59.75
2019-01-25T16:25:30.610Z,58.20
2019-01-25T16:28:00.361Z,53.28
2019-01-25T16:30:32.076Z,63.00
2019-01-25T16:33:00.635Z,56.68
2019-01-25T16:35:29.164Z,60.92
2019-01-25T16:37:57.909Z,60.52
2019-01-25T16:40:27.617Z,57.67
2019-01-25T16:42:56.177Z,51.25
2019-01-25T16:45:37.432Z,52.25
2019-01-25T16:48:06.418Z,55.12
2019-01-25T16:50:35.756Z,55.03
2019-01-25T16:53:05.816Z,53.15
2019-01-25T16:55:35.713Z,53.83
2019-01-25T16:58:05.207Z,56.88
2019-01-25T17:00:38.606Z,50.90
2019-01-25T17:03:07.269Z,60.40
2019-01-25T17:05:36.114Z,54.93
2019-01-25T17:08:06.778Z,53.52
2019-01-25T17:10:35.664Z,58.60
2019-01-25T17:13:05.137Z,50.00
2019-01-25T17:15:34.006Z,57.03
2019-01-25T17:18:02.446Z,64.70
2019-01-25T17:20:31.174Z,48.55
2019-01-25T17:22:59.619Z,51.83
2019-01-25T17:25:28.152Z,51.60
2019-01-25T17:27:56.741Z,49.67
2019-01-25T17:30:31.574Z,61.20
2019-01-25T17:33:00.851Z,57.15
2019-01-25T17:35:30.922Z,51.40
2019-01-25T17:37:59.662Z,52.43
2019-01-25T17:40:46.160Z,54.55
2019-01-25T17:43:09.190Z,50.00
2019-01-25T17:45:37.766Z,51.37
2019-01-25T17:48:06.947Z,48.83
2019-01-25T17:50:35.712Z,58.45
2019-01-25T17:53:04.400Z,54.75
2019-01-25T17:55:33.253Z,53.50
2019-01-25T17:58:08.272Z,58.17
2019-01-25T18:00:36.841Z,61.42
2019-01-25T18:03:05.275Z,58.83
2019-01-25T18:05:34.775Z,64.12
2019-01-25T18:08:03.588Z,56.15
2019-01-25T18:10:32.899Z,102.60
2019-01-25T18:13:01.384Z,71.13
2019-01-25T18:15:29.899Z,62.67
2019-01-25T18:17:58.742Z,72.25
2019-01-25T18:20:27.094Z,55.17
2019-01-25T18:22:55.608Z,62.10
2019-01-25T18:25:36.980Z,56.85
2019-01-25T18:28:08.712Z,75.45
2019-01-25T18:30:45.864Z,63.83
2019-01-25T18:33:15.408Z,67.10
2019-01-25T18:35:43.685Z,74.82
2019-01-25T18:38:12.211Z,67.72
2019-01-25T18:40:40.601Z,76.45
2019-01-25T18:43:09.103Z,67.65
2019-01-25T18:45:37.637Z,71.00
2019-01-25T18:48:06.658Z,77.90
2019-01-25T18:50:35.413Z,65.32
2019-01-25T18:53:04.134Z,64.53
2019-01-25T18:55:32.497Z,68.62
2019-01-25T18:58:01.284Z,73.20
2019-01-25T19:00:30.677Z,65.87
2019-01-25T19:02:59.260Z,66.40
2019-01-25T19:05:28.284Z,70.15
2019-01-25T19:07:57.624Z,75.30
2019-01-25T19:10:26.978Z,73.72
2019-01-25T19:12:55.827Z,84.42
2019-01-25T19:15:27.467Z,69.03
2019-01-25T19:17:55.977Z,69.15
2019-01-25T19:20:24.854Z,79.90
2019-01-25T19:22:53.492Z,81.45
2019-01-25T19:25:23.062Z,84.90
2019-01-25T19:27:51.760Z,78.83
2019-01-25T19:30:27.960Z,77.22
2019-01-25T19:32:57.260Z,88.80
2019-01-25T19:35:26.437Z,85.65
2019-01-25T19:37:55.940Z,97.82
2019-01-25T19:40:26.718Z,97.67
2019-01-25T19:42:55.342Z,103.07
2019-01-25T19:45:25.263Z,103.15
2019-01-25T19:47:54.596Z,125.38
2019-01-25T19:50:23.564Z,111.57
2019-01-25T19:52:52.274Z,108.67
2019-01-25T19:55:23.733Z,100.50
2019-01-25T19:57:53.495Z,101.42
2019-01-25T20:00:28.793Z,101.25
2019-01-25T20:02:57.565Z,94.90
2019-01-25T20:05:27.930Z,89.00
2019-01-25T20:07:56.664Z,103.60
2019-01-25T20:10:25.531Z,100.65
2019-01-25T20:12:54.622Z,90.42
2019-01-25T20:15:24.671Z,95.12
2019-01-25T20:17:53.831Z,109.07
2019-01-25T20:20:26.049Z,86.00
2019-01-25T20:22:55.820Z,81.97
2019-01-25T20:25:25.003Z,84.45
2019-01-25T20:27:54.172Z,95.50
2019-01-25T20:30:26.554Z,83.70
2019-01-25T20:32:55.562Z,75.97
2019-01-25T20:35:30.351Z,85.20
2019-01-25T20:37:59.144Z,79.97
2019-01-25T20:40:28.006Z,72.78
2019-01-25T20:42:56.749Z,76.02
2019-01-25T20:45:30.432Z,80.97
2019-01-25T20:47:59.109Z,76.60
2019-01-25T20:50:29.460Z,77.83
2019-01-25T20:52:58.201Z,74.07
2019-01-25T20:55:27.031Z,81.93
2019-01-25T20:57:57.919Z,64.83
2019-01-25T21:00:30.492Z,74.20
2019-01-25T21:02:59.003Z,72.13
2019-01-25T21:05:27.817Z,62.23
2019-01-25T21:07:56.454Z,73.17
2019-01-25T21:10:25.421Z,71.07
2019-01-25T21:12:54.240Z,68.53
2019-01-25T21:15:24.036Z,64.50
2019-01-25T21:17:53.105Z,59.83
2019-01-25T21:20:31.853Z,56.23
2019-01-25T21:23:01.032Z,48.73
2019-01-25T21:25:29.922Z,54.67
2019-01-25T21:27:58.766Z,49.47
2019-01-25T21:30:29.989Z,49.60
2019-01-25T21:32:58.657Z,47.40
2019-01-25T21:35:27.218Z,50.43
2019-01-25T21:37:55.807Z,42.60
2019-01-25T21:40:27.416Z,37.43
2019-01-25T21:42:55.936Z,41.07
2019-01-25T21:45:42.890Z,39.00
2019-01-25T21:48:14.089Z,42.90
2019-01-25T21:50:44.728Z,43.17
2019-01-25T21:53:13.338Z,46.00
2019-01-25T21:55:41.920Z,36.73
2019-01-25T21:58:10.533Z,41.20
2019-01-25T22:00:39.097Z,41.27
2019-01-25T22:03:07.863Z,43.03
2019-01-25T22:05:36.621Z,39.50
2019-01-25T22:08:05.947Z,44.00
2019-01-25T22:10:38.787Z,42.57
2019-01-25T22:13:07.884Z,42.47
2019-01-25T22:15:36.477Z,44.70
2019-01-25T22:18:05.591Z,42.47
2019-01-25T22:20:34.487Z,44.33
2019-01-25T22:23:03.399Z,39.33
2019-01-25T22:25:32.024Z,38.67
2019-01-25T22:28:00.826Z,42.77
2019-01-25T22:30:29.461Z,42.63
2019-01-25T22:32:58.383Z,43.17
2019-01-25T22:35:28.612Z,38.27
2019-01-25T22:37:57.265Z,40.33
2019-01-25T22:40:29.011Z,42.40
2019-01-25T22:43:00.623Z,43.03
2019-01-25T22:45:31.047Z,42.83
2019-01-25T22:48:01.842Z,41.27
2019-01-25T22:50:33.669Z,43.10
2019-01-25T22:53:02.342Z,38.30
2019-01-25T22:55:30.942Z,42.93
2019-01-25T22:57:59.475Z,40.87
2019-01-25T23:01:04.837Z,40.70
2019-01-25T23:04:18.098Z,38.23
2019-01-25T23:07:18.491Z,37.23
2019-01-25T23:09:53.254Z,35.03
2019-01-25T23:12:23.314Z,39.53
2019-01-25T23:14:51.902Z,37.70
2019-01-25T23:17:20.470Z,33.93
2019-01-25T23:19:48.994Z,33.13
2019-01-25T23:22:17.659Z,33.47
2019-01-25T23:24:46.131Z,31.20
2019-01-25T23:27:14.730Z,31.00
2019-01-25T23:29:43.199Z,30.33
2019-01-25T23:32:12.144Z,28.30
2019-01-25T23:34:40.657Z,27.57
2019-01-25T23:37:09.116Z,25.83
2019-01-25T23:39:37.672Z,27.23
2019-01-25T23:42:06.524Z,28.17
2019-01-25T23:44:35.255Z,28.03
2019-01-25T23:47:04.284Z,28.37
2019-01-25T23:49:32.935Z,28.07
2019-01-25T23:52:01.470Z,28.83
2019-01-25T23:54:30.316Z,28.70
2019-01-25T23:56:58.890Z,30.00
2019-01-25T23:59:27.514Z,26.93
